createdAt,value
2019-01-31T00:02:25.658Z,12.27
2019-01-31T00:05:24.616Z,12.37
2019-01-31T00:08:45.488Z,12.63
2019-01-31T00:11:42.080Z,12.80
2019-01-31T00:14:58.498Z,11.73
2019-01-31T00:18:13.004Z,12.47
2019-01-31T00:21:07.415Z,13.30
2019-01-31T00:24:12.738Z,11.40
2019-01-31T00:27:30.475Z,11.87
2019-01-31T00:30:40.878Z,12.30
2019-01-31T00:33:32.058Z,13.23
2019-01-31T00:36:40.912Z,12.50
2019-01-31T00:39:50.300Z,12.93
2019-01-31T00:42:49.146Z,10.77
2019-01-31T00:45:39.171Z,10.50
2019-01-31T00:48:34.683Z,9.60
2019-01-31T00:51:13.759Z,9.23
2019-01-31T00:54:10.404Z,10.07
2019-01-31T00:57:15.194Z,9.10
2019-01-31T01:00:11.228Z,9.00
2019-01-31T01:03:11.038Z,7.40
2019-01-31T01:06:23.114Z,8.20
2019-01-31T01:09:18.727Z,7.77
2019-01-31T01:12:41.980Z,7.27
2019-01-31T01:15:50.235Z,6.43
2019-01-31T01:18:36.094Z,6.50
2019-01-31T01:22:08.789Z,6.20
2019-01-31T01:25:20.003Z,6.53
2019-01-31T01:28:01.746Z,6.93
2019-01-31T01:31:21.863Z,7.97
2019-01-31T01:34:43.297Z,7.10
2019-01-31T01:37:52.831Z,7.70
2019-01-31T01:41:03.141Z,6.80
2019-01-31T01:43:49.653Z,5.37
2019-01-31T01:46:51.735Z,5.93
2019-01-31T01:49:49.896Z,4.67
2019-01-31T01:52:50.896Z,4.37
2019-01-31T01:55:34.474Z,3.00
2019-01-31T01:58:57.994Z,2.97
2019-01-31T02:02:08.684Z,2.30
2019-01-31T02:05:15.005Z,2.40
2019-01-31T02:08:08.291Z,2.87
2019-01-31T02:10:59.598Z,2.80
2019-01-31T02:14:20.293Z,2.73
2019-01-31T02:16:58.786Z,2.23
2019-01-31T02:20:13.243Z,2.63
2019-01-31T02:23:23.554Z,1.90
2019-01-31T02:26:29.594Z,2.40
2019-01-31T02:29:37.776Z,2.30
2019-01-31T02:32:52.118Z,1.43
2019-01-31T02:35:53.271Z,1.00
2019-01-31T02:38:51.926Z,1.00
2019-01-31T02:42:18.135Z,0.77
2019-01-31T02:45:47.349Z,0.93
2019-01-31T02:48:51.410Z,0.80
2019-01-31T02:52:07.290Z,0.97
2019-01-31T02:54:46.720Z,0.80
2019-01-31T02:57:54.100Z,1.10
2019-01-31T03:00:34.938Z,1.00
2019-01-31T03:03:43.617Z,0.80
2019-01-31T03:07:13.249Z,0.87
2019-01-31T03:10:18.230Z,0.70
2019-01-31T03:13:26.625Z,0.80
2019-01-31T03:16:26.477Z,0.80
2019-01-31T03:19:40.677Z,0.70
2019-01-31T03:22:48.739Z,0.80
2019-01-31T03:25:35.177Z,1.40
2019-01-31T03:28:40.662Z,1.73
2019-01-31T03:31:49.005Z,1.73
2019-01-31T03:34:59.784Z,1.30
2019-01-31T03:37:53.895Z,0.90
2019-01-31T03:40:48.723Z,1.00
2019-01-31T03:43:55.891Z,1.00
2019-01-31T03:47:26.665Z,1.50
2019-01-31T03:50:27.399Z,1.40
2019-01-31T03:53:44.357Z,1.93
2019-01-31T03:56:49.477Z,1.27
2019-01-31T03:59:27.110Z,1.10
2019-01-31T04:02:07.107Z,1.20
2019-01-31T04:04:45.305Z,1.10
2019-01-31T04:07:15.596Z,1.20
2019-01-31T04:09:45.858Z,1.20
2019-01-31T04:12:16.201Z,1.50
2019-01-31T04:14:48.239Z,1.77
2019-01-31T04:17:18.576Z,1.73
2019-01-31T04:19:48.845Z,2.40
2019-01-31T04:22:19.210Z,2.47
2019-01-31T04:24:49.573Z,2.57
2019-01-31T04:27:19.894Z,3.40
2019-01-31T04:29:50.238Z,3.70
2019-01-31T04:32:20.510Z,4.80
2019-01-31T04:34:50.940Z,4.10
2019-01-31T04:37:21.196Z,4.10
2019-01-31T04:39:51.596Z,4.60
2019-01-31T04:42:24.878Z,4.50
2019-01-31T04:44:55.276Z,4.07
2019-01-31T04:47:27.855Z,4.37
2019-01-31T04:49:58.206Z,4.67
2019-01-31T04:52:28.538Z,4.30
2019-01-31T04:55:00.196Z,4.20
2019-01-31T04:57:30.525Z,3.93
2019-01-31T05:00:01.043Z,4.03
2019-01-31T05:02:31.439Z,4.17
2019-01-31T05:05:06.500Z,4.50
2019-01-31T05:07:36.932Z,4.40
2019-01-31T05:10:09.388Z,4.60
2019-01-31T05:12:39.726Z,5.63
2019-01-31T05:15:12.917Z,5.23
2019-01-31T05:17:43.291Z,6.17
2019-01-31T05:20:16.244Z,6.30
2019-01-31T05:22:46.492Z,6.10
2019-01-31T05:25:17.019Z,6.30
2019-01-31T05:27:47.319Z,7.30
2019-01-31T05:30:17.721Z,7.37
2019-01-31T05:32:47.995Z,7.47
2019-01-31T05:35:18.457Z,8.20
2019-01-31T05:37:48.859Z,8.03
2019-01-31T05:40:19.281Z,8.37
2019-01-31T05:43:03.224Z,7.47
2019-01-31T05:45:35.044Z,8.10
2019-01-31T05:48:05.347Z,7.63
2019-01-31T05:50:36.499Z,8.53
2019-01-31T05:53:06.825Z,8.33
2019-01-31T05:55:37.273Z,8.73
2019-01-31T05:58:07.572Z,9.23
2019-01-31T06:00:39.222Z,9.37
2019-01-31T06:03:09.661Z,9.37
2019-01-31T06:05:40.128Z,9.83
2019-01-31T06:08:10.469Z,9.63
2019-01-31T06:10:40.877Z,10.77
2019-01-31T06:13:11.280Z,9.43
2019-01-31T06:15:41.616Z,11.07
2019-01-31T06:18:12.127Z,12.30
2019-01-31T06:20:42.478Z,11.90
2019-01-31T06:23:12.861Z,12.23
2019-01-31T06:25:52.338Z,12.53
2019-01-31T06:28:22.665Z,12.17
2019-01-31T06:30:52.926Z,12.23
2019-01-31T06:33:23.706Z,12.90
2019-01-31T06:35:54.099Z,13.80
2019-01-31T06:38:24.328Z,14.13
2019-01-31T06:40:54.609Z,14.90
2019-01-31T06:43:24.886Z,14.83
2019-01-31T06:45:56.344Z,14.17
2019-01-31T06:48:26.881Z,16.20
2019-01-31T06:50:57.232Z,15.67
2019-01-31T06:53:27.494Z,15.27
2019-01-31T06:55:57.848Z,16.00
2019-01-31T06:58:28.170Z,15.43
2019-01-31T07:00:58.648Z,16.40
2019-01-31T07:03:29.042Z,16.50
2019-01-31T07:05:59.401Z,17.77
2019-01-31T07:08:29.693Z,17.67
2019-01-31T07:11:00.829Z,17.47
2019-01-31T07:13:33.861Z,19.17
2019-01-31T07:16:03.134Z,18.27
2019-01-31T07:18:33.447Z,20.80
2019-01-31T07:21:03.761Z,18.20
2019-01-31T07:23:34.111Z,19.90
2019-01-31T07:26:04.410Z,19.23
2019-01-31T07:28:36.325Z,19.50
2019-01-31T07:31:06.854Z,19.67
2019-01-31T07:33:37.277Z,20.27
2019-01-31T07:36:07.744Z,19.87
2019-01-31T07:38:38.789Z,20.50
2019-01-31T07:41:11.246Z,20.90
2019-01-31T07:43:41.774Z,19.50
2019-01-31T07:46:12.147Z,20.00
2019-01-31T07:48:42.609Z,20.77
2019-01-31T07:51:13.067Z,19.73
2019-01-31T07:53:43.491Z,20.27
2019-01-31T07:56:13.998Z,20.00
2019-01-31T07:58:44.424Z,20.60
2019-01-31T08:01:15.034Z,18.87
2019-01-31T08:03:47.040Z,19.93
2019-01-31T08:06:17.538Z,19.77
2019-01-31T08:08:47.872Z,19.00
2019-01-31T08:11:18.308Z,18.27
2019-01-31T08:13:48.634Z,18.87
2019-01-31T08:16:19.618Z,18.80
2019-01-31T08:18:50.150Z,18.80
2019-01-31T08:21:20.544Z,18.23
2019-01-31T08:23:50.980Z,19.43
2019-01-31T08:26:21.439Z,19.97
2019-01-31T08:28:51.836Z,18.60
2019-01-31T08:31:22.432Z,19.00
2019-01-31T08:33:53.086Z,19.07
2019-01-31T08:36:23.452Z,19.23
2019-01-31T08:38:54.111Z,18.50
2019-01-31T08:41:24.410Z,19.23
2019-01-31T08:43:54.715Z,18.33
2019-01-31T08:46:25.119Z,18.57
2019-01-31T08:48:55.377Z,18.27
2019-01-31T08:51:25.810Z,18.60
2019-01-31T08:53:56.169Z,18.57
2019-01-31T08:56:26.481Z,18.57
2019-01-31T08:58:56.787Z,17.63
2019-01-31T09:01:27.131Z,17.50
2019-01-31T09:03:57.404Z,17.77
2019-01-31T09:06:27.823Z,18.43
2019-01-31T09:08:58.311Z,17.77
2019-01-31T09:11:28.799Z,16.73
2019-01-31T09:13:59.228Z,17.07
2019-01-31T09:16:29.605Z,17.17
2019-01-31T09:19:00.084Z,16.70
2019-01-31T09:21:43.449Z,16.23
2019-01-31T09:24:32.947Z,16.73
2019-01-31T09:27:40.722Z,15.87
2019-01-31T09:30:45.260Z,15.00
2019-01-31T09:34:05.832Z,14.80
2019-01-31T09:36:47.729Z,14.97
2019-01-31T09:40:02.666Z,14.10
2019-01-31T09:42:45.654Z,14.63
2019-01-31T09:45:45.273Z,15.00
2019-01-31T09:48:59.919Z,14.43
2019-01-31T09:52:03.144Z,15.00
2019-01-31T09:55:02.285Z,16.10
2019-01-31T09:58:20.975Z,16.30
2019-01-31T10:01:01.023Z,14.60
2019-01-31T10:03:54.660Z,14.73
2019-01-31T10:06:47.521Z,15.37
2019-01-31T10:09:42.383Z,15.33
2019-01-31T10:13:02.976Z,14.67
2019-01-31T10:15:46.429Z,15.27
2019-01-31T10:18:57.970Z,15.63
2019-01-31T10:22:05.447Z,15.47
2019-01-31T10:25:19.940Z,16.83
2019-01-31T10:28:52.543Z,15.37
2019-01-31T10:31:55.096Z,15.93
2019-01-31T10:34:42.138Z,14.20
2019-01-31T10:37:48.995Z,14.83
2019-01-31T10:40:54.969Z,15.27
2019-01-31T10:43:38.768Z,15.23
2019-01-31T10:46:59.288Z,14.60
2019-01-31T10:50:12.084Z,14.70
2019-01-31T10:53:03.200Z,15.27
2019-01-31T10:55:59.521Z,14.90
2019-01-31T10:58:58.110Z,15.00
2019-01-31T11:01:54.587Z,16.47
2019-01-31T11:04:52.999Z,15.23
2019-01-31T11:07:49.743Z,16.47
2019-01-31T11:10:33.798Z,16.17
2019-01-31T11:13:34.462Z,17.90
2019-01-31T11:16:47.406Z,16.87
2019-01-31T11:19:54.805Z,18.00
2019-01-31T11:23:21.823Z,18.90
2019-01-31T11:26:29.737Z,20.87
2019-01-31T11:29:25.243Z,23.37
2019-01-31T11:32:18.994Z,23.30
2019-01-31T11:35:24.743Z,26.87
2019-01-31T11:38:41.961Z,25.80
2019-01-31T11:41:26.690Z,26.70
2019-01-31T11:44:44.923Z,26.90
2019-01-31T11:47:52.583Z,34.57
2019-01-31T11:50:50.777Z,40.73
2019-01-31T11:53:34.501Z,41.37
2019-01-31T11:56:49.442Z,39.77
2019-01-31T11:59:19.801Z,43.37
2019-01-31T12:01:50.158Z,44.23
2019-01-31T12:04:20.560Z,41.97
2019-01-31T12:06:51.116Z,42.40
2019-01-31T12:09:22.578Z,40.20
2019-01-31T12:11:53.076Z,37.87
2019-01-31T12:14:25.101Z,39.50
2019-01-31T12:16:55.524Z,41.63
2019-01-31T12:19:26.541Z,39.10
2019-01-31T12:21:57.782Z,39.00
2019-01-31T12:24:28.365Z,39.97
2019-01-31T12:26:58.755Z,40.83
2019-01-31T12:29:29.180Z,41.77
2019-01-31T12:31:59.991Z,41.20
2019-01-31T12:34:30.301Z,44.17
2019-01-31T12:37:02.272Z,44.20
2019-01-31T12:39:33.721Z,42.60
2019-01-31T12:42:04.679Z,41.13
2019-01-31T12:44:35.118Z,40.17
2019-01-31T12:47:05.416Z,41.83
2019-01-31T12:49:35.743Z,44.57
2019-01-31T12:52:06.195Z,42.20
2019-01-31T12:54:36.531Z,43.70
2019-01-31T12:57:08.442Z,43.37
2019-01-31T12:59:38.904Z,39.83
2019-01-31T13:02:09.861Z,40.17
2019-01-31T13:04:42.435Z,37.90
2019-01-31T13:07:13.581Z,39.70
2019-01-31T13:09:43.991Z,41.93
2019-01-31T13:12:14.416Z,39.23
2019-01-31T13:14:46.068Z,41.60
2019-01-31T13:17:16.536Z,42.13
2019-01-31T13:19:46.981Z,40.20
2019-01-31T13:22:20.716Z,41.27
2019-01-31T13:24:51.108Z,41.13
2019-01-31T13:27:22.362Z,42.40
2019-01-31T13:29:53.004Z,40.90
2019-01-31T13:32:23.532Z,40.80
2019-01-31T13:34:53.851Z,38.90
2019-01-31T13:37:24.336Z,39.30
2019-01-31T13:39:54.943Z,43.07
2019-01-31T13:42:25.340Z,42.87
2019-01-31T13:44:55.716Z,43.10
2019-01-31T13:47:26.138Z,41.77
2019-01-31T13:49:56.571Z,42.40
2019-01-31T13:52:29.395Z,41.77
2019-01-31T13:54:59.831Z,45.57
2019-01-31T13:57:30.435Z,45.73
2019-01-31T14:00:03.739Z,45.73
2019-01-31T14:02:35.320Z,46.17
2019-01-31T14:05:06.217Z,45.37
2019-01-31T14:07:36.721Z,43.37
2019-01-31T14:10:10.389Z,46.13
2019-01-31T14:12:40.859Z,46.70
2019-01-31T14:15:12.407Z,48.77
2019-01-31T14:17:43.026Z,48.97
2019-01-31T14:20:17.294Z,46.93
2019-01-31T14:22:51.199Z,47.23
2019-01-31T14:25:22.118Z,48.10
2019-01-31T14:27:53.139Z,49.63
2019-01-31T14:30:35.102Z,46.97
2019-01-31T14:33:10.780Z,47.50
2019-01-31T14:35:41.183Z,47.50
2019-01-31T14:38:12.162Z,46.37
2019-01-31T14:40:44.200Z,47.03
2019-01-31T14:43:17.258Z,45.63
2019-01-31T14:45:47.949Z,45.53
2019-01-31T14:48:18.679Z,44.47
2019-01-31T14:50:49.967Z,46.50
2019-01-31T14:53:20.667Z,43.90
2019-01-31T14:55:51.214Z,44.37
2019-01-31T14:58:24.106Z,45.80
2019-01-31T15:00:54.679Z,44.60
2019-01-31T15:03:27.877Z,45.60
2019-01-31T15:06:02.747Z,42.07
2019-01-31T15:08:35.533Z,42.17
2019-01-31T15:11:06.259Z,43.97
2019-01-31T15:13:36.745Z,43.37
2019-01-31T15:16:08.722Z,41.37
2019-01-31T15:18:39.428Z,42.60
2019-01-31T15:21:10.158Z,42.93
2019-01-31T15:23:40.844Z,39.13
2019-01-31T15:26:14.344Z,38.73
2019-01-31T15:28:47.905Z,40.97
2019-01-31T15:31:18.351Z,39.27
2019-01-31T15:33:49.087Z,38.70
2019-01-31T15:36:20.952Z,40.43
2019-01-31T15:38:51.634Z,36.80
2019-01-31T15:41:22.107Z,40.00
2019-01-31T15:43:52.833Z,38.37
2019-01-31T15:46:23.802Z,39.00
2019-01-31T15:48:54.438Z,37.57
2019-01-31T15:51:27.318Z,40.00
2019-01-31T15:54:00.757Z,41.30
2019-01-31T15:56:31.291Z,42.80
2019-01-31T15:59:01.946Z,43.60
2019-01-31T16:01:32.723Z,42.67
2019-01-31T16:04:03.231Z,42.10
2019-01-31T16:06:34.857Z,45.10
2019-01-31T16:09:09.026Z,44.23
2019-01-31T16:11:41.693Z,41.27
2019-01-31T16:14:12.351Z,42.73
2019-01-31T16:16:43.796Z,41.53
2019-01-31T16:19:16.872Z,39.67
2019-01-31T16:21:47.361Z,37.97
2019-01-31T16:24:17.850Z,36.20
2019-01-31T16:26:48.437Z,38.83
2019-01-31T16:29:18.910Z,33.93
2019-01-31T16:31:49.432Z,36.10
2019-01-31T16:34:21.893Z,34.30
2019-01-31T16:36:52.379Z,32.77
2019-01-31T16:39:22.692Z,28.70
2019-01-31T16:41:54.633Z,28.63
2019-01-31T16:44:24.997Z,27.67
2019-01-31T16:46:55.327Z,25.77
2019-01-31T16:49:25.767Z,26.60
2019-01-31T16:51:57.959Z,27.47
2019-01-31T16:54:28.414Z,26.27
2019-01-31T16:56:58.788Z,26.93
2019-01-31T16:59:29.210Z,25.33
2019-01-31T17:02:01.524Z,24.53
2019-01-31T17:04:34.340Z,22.43
2019-01-31T17:07:04.215Z,27.33
2019-01-31T17:09:34.648Z,27.03
2019-01-31T17:12:07.871Z,27.83
2019-01-31T17:14:38.371Z,28.57
2019-01-31T17:17:08.802Z,30.17
2019-01-31T17:19:39.217Z,29.23
2019-01-31T17:22:09.532Z,29.47
2019-01-31T17:24:39.817Z,29.13
2019-01-31T17:27:10.330Z,30.17
2019-01-31T17:29:41.683Z,29.97
2019-01-31T17:32:12.039Z,30.63
2019-01-31T17:34:42.617Z,28.20
2019-01-31T17:37:13.072Z,30.60
2019-01-31T17:39:43.553Z,32.53
2019-01-31T17:42:14.768Z,30.73
2019-01-31T17:44:49.700Z,33.60
2019-01-31T17:47:20.244Z,32.27
2019-01-31T17:49:50.959Z,34.03
2019-01-31T17:52:21.489Z,33.00
2019-01-31T17:54:51.715Z,32.53
2019-01-31T17:57:22.148Z,34.17
2019-01-31T17:59:52.597Z,35.43
2019-01-31T18:02:23.987Z,34.67
2019-01-31T18:04:55.372Z,37.73
2019-01-31T18:07:25.951Z,38.37
2019-01-31T18:09:56.429Z,34.53
2019-01-31T18:12:26.767Z,34.77
2019-01-31T18:14:57.240Z,36.27
2019-01-31T18:17:30.957Z,40.13
2019-01-31T18:20:01.352Z,39.10
2019-01-31T18:22:31.816Z,37.30
2019-01-31T18:25:02.203Z,38.80
2019-01-31T18:27:32.620Z,37.07
2019-01-31T18:30:03.046Z,37.73
2019-01-31T18:32:35.566Z,39.37
2019-01-31T18:35:07.460Z,39.27
2019-01-31T18:37:37.767Z,41.40
2019-01-31T18:40:13.828Z,40.30
2019-01-31T18:42:44.297Z,39.47
2019-01-31T18:45:20.239Z,37.83
2019-01-31T18:47:50.673Z,39.00
2019-01-31T18:50:23.310Z,37.17
2019-01-31T18:52:53.795Z,39.87
2019-01-31T18:55:24.441Z,40.67
2019-01-31T18:57:56.429Z,40.93
2019-01-31T19:00:32.524Z,40.37
2019-01-31T19:03:03.208Z,41.17
2019-01-31T19:05:33.656Z,39.07
2019-01-31T19:08:08.664Z,39.23
2019-01-31T19:10:43.378Z,40.03
2019-01-31T19:13:10.801Z,37.40
2019-01-31T19:15:41.356Z,41.53
2019-01-31T19:18:11.701Z,37.93
2019-01-31T19:20:42.160Z,38.83
2019-01-31T19:23:13.708Z,37.67
2019-01-31T19:25:47.244Z,39.43
2019-01-31T19:28:19.024Z,38.87
2019-01-31T19:30:49.548Z,37.93
2019-01-31T19:33:19.921Z,39.83
2019-01-31T19:35:50.330Z,40.10
2019-01-31T19:38:20.743Z,38.30
2019-01-31T19:40:53.105Z,37.63
2019-01-31T19:43:23.555Z,38.43
2019-01-31T19:45:54.051Z,37.83
2019-01-31T19:48:24.638Z,38.87
2019-01-31T19:50:55.287Z,38.80
2019-01-31T19:53:28.953Z,37.40
2019-01-31T19:55:59.332Z,37.30
2019-01-31T19:58:30.783Z,38.93
2019-01-31T20:01:01.154Z,36.17
2019-01-31T20:03:32.332Z,38.73
2019-01-31T20:06:03.001Z,41.07
2019-01-31T20:08:33.655Z,37.97
2019-01-31T20:11:04.116Z,38.50
2019-01-31T20:13:34.512Z,35.77
2019-01-31T20:16:05.022Z,34.90
2019-01-31T20:18:35.507Z,35.53
2019-01-31T20:21:06.374Z,34.87
2019-01-31T20:23:36.908Z,36.17
2019-01-31T20:26:07.376Z,36.40
2019-01-31T20:28:40.622Z,37.57
2019-01-31T20:31:10.953Z,38.77
2019-01-31T20:33:41.742Z,37.83
2019-01-31T20:36:12.234Z,38.43
2019-01-31T20:38:43.513Z,40.00
2019-01-31T20:41:13.822Z,41.43
2019-01-31T20:43:44.213Z,39.93
2019-01-31T20:46:14.567Z,44.00
2019-01-31T20:48:44.985Z,40.60
2019-01-31T20:51:18.324Z,42.60
2019-01-31T20:53:48.728Z,42.87
2019-01-31T20:56:19.281Z,43.33
2019-01-31T20:58:49.808Z,41.70
2019-01-31T21:01:20.223Z,45.33
2019-01-31T21:03:50.633Z,43.30
2019-01-31T21:06:21.066Z,46.00
2019-01-31T21:08:51.516Z,41.43
2019-01-31T21:11:21.966Z,43.60
2019-01-31T21:13:52.507Z,43.93
2019-01-31T21:16:22.978Z,43.80
2019-01-31T21:18:53.320Z,41.70
2019-01-31T21:21:23.673Z,45.73
2019-01-31T21:23:54.111Z,45.83
2019-01-31T21:26:24.927Z,47.23
2019-01-31T21:28:57.608Z,41.17
2019-01-31T21:31:28.157Z,45.10
2019-01-31T21:33:58.477Z,45.13
2019-01-31T21:36:29.172Z,46.93
2019-01-31T21:38:59.550Z,44.43
2019-01-31T21:41:29.868Z,43.80
2019-01-31T21:44:00.269Z,44.20
2019-01-31T21:46:30.680Z,41.57
2019-01-31T21:49:01.148Z,43.37
2019-01-31T21:51:31.535Z,41.77
2019-01-31T21:54:01.997Z,41.53
2019-01-31T21:56:32.324Z,43.33
2019-01-31T21:59:02.621Z,44.63
2019-01-31T22:01:33.956Z,44.27
2019-01-31T22:04:05.976Z,43.60
2019-01-31T22:06:36.352Z,44.37
2019-01-31T22:09:09.695Z,42.97
2019-01-31T22:11:40.159Z,43.80
2019-01-31T22:14:10.509Z,43.60
2019-01-31T22:16:40.838Z,42.37
2019-01-31T22:19:11.218Z,41.37
2019-01-31T22:21:41.499Z,40.77
2019-01-31T22:24:12.375Z,40.23
2019-01-31T22:26:42.738Z,38.97
2019-01-31T22:29:13.196Z,37.67
2019-01-31T22:31:45.874Z,43.53
2019-01-31T22:34:16.307Z,43.77
2019-01-31T22:36:46.812Z,45.60
2019-01-31T22:39:17.214Z,47.30
2019-01-31T22:41:47.492Z,46.73
2019-01-31T22:44:17.878Z,46.87
2019-01-31T22:46:48.248Z,48.67
2019-01-31T22:49:18.638Z,46.33
2019-01-31T22:51:48.890Z,48.57
2019-01-31T22:54:19.226Z,42.90
2019-01-31T22:56:51.056Z,48.37
2019-01-31T22:59:21.416Z,47.77
2019-01-31T23:01:54.631Z,46.60
2019-01-31T23:04:24.961Z,47.67
2019-01-31T23:06:55.259Z,46.53
2019-01-31T23:09:25.627Z,45.60
2019-01-31T23:11:55.973Z,47.37
2019-01-31T23:14:26.909Z,45.97
2019-01-31T23:16:57.221Z,43.97
2019-01-31T23:19:27.502Z,44.90
2019-01-31T23:21:57.871Z,42.60
2019-01-31T23:24:28.336Z,41.07
2019-01-31T23:26:58.663Z,42.97
2019-01-31T23:29:29.085Z,40.87
2019-01-31T23:31:59.487Z,41.20
2019-01-31T23:34:29.999Z,41.10
2019-01-31T23:37:01.379Z,39.97
2019-01-31T23:39:31.813Z,41.30
2019-01-31T23:42:02.153Z,40.37
2019-01-31T23:44:32.469Z,38.03
2019-01-31T23:47:02.729Z,38.53
2019-01-31T23:49:33.034Z,39.37
2019-01-31T23:52:03.346Z,42.33
2019-01-31T23:54:33.745Z,41.77
2019-01-31T23:57:04.014Z,38.10
2019-01-31T23:59:34.354Z,38.20
